Time;durP1;ratioP1;P1;durP2;ratioP2;P2;SDS_P1;SDS_P2;PMS_P1;PMS_P2;Temp;Humidity;BMP_temperature;BMP_pressure;BME280_temperature;BME280_humidity;BME280_pressure;Samples;Min_cycle;Max_cycle;Signal;HPM_P1;HPM_P2
2022/01/10 00:00:20;;;;;;;23.35;9.77;;;;;;;-7.19;97.80;99456.56;5074311;28;20048;-74
2022/01/10 00:02:51;;;;;;;25.30;9.63;;;;;;;-7.23;97.86;99452.28;5091965;28;20200;-73
2022/01/10 00:05:17;;;;;;;25.42;10.20;;;;;;;-7.23;97.97;99452.28;5057259;28;20135;-74
2022/01/10 00:07:42;;;;;;;25.23;9.85;;;;;;;-7.23;97.70;99453.16;5074315;28;20044;-73
2022/01/10 00:10:09;;;;;;;31.75;9.35;;;;;;;-7.18;98.25;99453.88;5092244;28;20103;-74
2022/01/10 00:12:35;;;;;;;31.40;9.18;;;;;;;-7.36;97.96;99410.63;5074290;28;20044;-74
2022/01/10 00:15:02;;;;;;;24.40;9.30;;;;;;;-7.31;97.79;99423.63;5074049;28;20385;-73
2022/01/10 00:17:29;;;;;;;24.05;9.32;;;;;;;-7.27;98.32;99425.25;5073619;28;20040;-73
2022/01/10 00:19:55;;;;;;;26.40;8.85;;;;;;;-7.15;98.73;99435.38;5040056;28;20054;-74
2022/01/10 00:22:23;;;;;;;35.97;10.68;;;;;;;-7.10;98.26;99438.72;5092111;28;20044;-74
2022/01/10 00:24:49;;;;;;;25.17;8.45;;;;;;;-7.15;97.61;99439.78;5073796;28;20075;-74
2022/01/10 00:27:15;;;;;;;24.85;8.60;;;;;;;-7.12;97.61;99445.81;5040374;28;20507;-73
2022/01/10 00:29:41;;;;;;;23.85;8.85;;;;;;;-7.33;97.54;99412.31;5024216;28;20044;-73
2022/01/10 00:32:07;;;;;;;25.60;8.80;;;;;;;-7.07;98.03;99449.16;5057324;28;20039;-75
2022/01/10 00:34:33;;;;;;;20.40;8.32;;;;;;;-7.08;97.91;99442.19;5091468;28;20035;-73
2022/01/10 00:36:58;;;;;;;24.38;9.25;;;;;;;-7.11;97.40;99431.75;5057013;28;20047;-74
2022/01/10 00:39:24;;;;;;;25.95;9.77;;;;;;;-7.05;97.58;99439.47;5073608;28;20342;-74
2022/01/10 00:41:50;;;;;;;27.08;9.98;;;;;;;-7.10;97.74;99438.72;5040357;28;20473;-73
2022/01/10 00:44:16;;;;;;;21.20;8.60;;;;;;;-7.22;98.33;99422.50;5056345;28;20089;-72
2022/01/10 00:46:42;;;;;;;23.88;8.05;;;;;;;-7.08;98.62;99439.56;5091452;28;20127;-73
2022/01/10 00:49:07;;;;;;;22.88;9.05;;;;;;;-7.04;97.76;99433.28;5073149;28;20044;-73
2022/01/10 00:51:34;;;;;;;21.38;9.13;;;;;;;-7.10;98.50;99443.13;5073790;28;20090;-73
2022/01/10 00:54:00;;;;;;;23.48;8.45;;;;;;;-7.07;98.36;99443.88;5073466;28;20052;-72
2022/01/10 00:56:26;;;;;;;21.85;8.82;;;;;;;-7.08;98.51;99431.69;5072945;28;20465;-73
2022/01/10 00:58:52;;;;;;;20.65;8.15;;;;;;;-7.05;98.63;99431.59;5090975;28;20043;-73
2022/01/10 01:01:19;;;;;;;25.23;9.75;;;;;;;-7.10;98.33;99430.84;5056669;28;20055;-73
2022/01/10 01:03:46;;;;;;;23.05;8.80;;;;;;;-7.11;99.08;99431.75;5056465;28;20044;-73
2022/01/10 01:06:13;;;;;;;27.08;9.35;;;;;;;-7.18;99.05;99432.00;5072719;28;20048;-73
2022/01/10 01:08:40;;;;;;;23.80;9.65;;;;;;;-7.17;99.23;99420.56;5072644;28;20101;-73
2022/01/10 01:12:00;;;;;;;23.88;8.15;;;;;;;-7.10;98.99;99427.38;5056050;28;20335;-73
2022/01/10 01:14:06;;;;;;;29.67;10.25;;;;;;;-7.11;98.50;99421.25;5069084;28;20044;-73
2022/01/10 01:24:31;;;;;;;27.05;9.85;;;;;;;-7.04;98.84;99412.28;5076504;28;20052;-73
2022/01/10 01:26:57;;;;;;;25.77;9.45;;;;;;;-7.05;99.01;99415.81;5057591;28;20424;-75
2022/01/10 01:29:26;;;;;;;24.05;9.48;;;;;;;-7.05;99.49;99421.06;5057630;28;20044;-73
2022/01/10 01:31:52;;;;;;;22.92;8.98;;;;;;;-7.05;99.61;99407.09;5074828;28;20127;-73
2022/01/10 01:34:20;;;;;;;24.50;9.23;;;;;;;-7.26;99.79;99369.22;5057541;28;20048;-74
2022/01/10 01:36:50;;;;;;;25.13;9.15;;;;;;;-7.05;99.80;99404.47;5074711;28;20280;-74
2022/01/10 01:39:21;;;;;;;26.88;10.00;;;;;;;-7.05;100.00;99409.72;5075404;28;20048;-73
2022/01/10 01:41:56;;;;;;;25.20;9.45;;;;;;;-7.09;99.90;99408.94;5074018;28;20134;-73
2022/01/10 01:44:22;;;;;;;24.90;8.85;;;;;;;-7.04;99.72;99407.03;5074574;28;20048;-73
2022/01/10 01:46:48;;;;;;;25.13;9.90;;;;;;;-6.99;100.00;99411.28;5074375;28;20055;-73
2022/01/10 01:49:14;;;;;;;23.23;9.65;;;;;;;-6.99;99.82;99398.13;5057636;28;20048;-73
2022/01/10 01:51:40;;;;;;;22.17;9.07;;;;;;;-6.99;100.00;99398.13;5092000;28;20169;-73
2022/01/10 01:54:08;;;;;;;26.83;9.93;;;;;;;-7.02;99.62;99404.34;5057572;28;20081;-73
2022/01/10 01:56:35;;;;;;;25.02;8.77;;;;;;;-7.00;100.00;99412.19;5075537;28;20036;-73
2022/01/10 01:59:03;;;;;;;23.15;8.50;;;;;;;-6.98;100.00;99394.59;5073888;28;20048;-72
2022/01/10 02:01:30;;;;;;;26.48;9.10;;;;;;;-7.31;100.00;99350.13;5057754;28;20141;-74
2022/01/10 02:03:57;;;;;;;26.15;10.13;;;;;;;-6.99;99.99;99398.13;5057485;28;20056;-73
2022/01/10 02:06:28;;;;;;;24.17;9.10;;;;;;;-6.99;100.00;99392.88;5092434;28;20565;-73
2022/01/10 02:08:55;;;;;;;24.80;8.52;;;;;;;-6.98;100.00;99400.75;5056844;28;20044;-74
2022/01/10 02:11:21;;;;;;;20.88;8.60;;;;;;;-6.90;100.00;99392.59;5058484;28;20173;-72
2022/01/10 02:13:47;;;;;;;27.00;9.80;;;;;;;-6.93;100.00;99403.22;5060313;28;20121;-72
2022/01/10 02:16:33;;;;;;;26.83;9.32;;;;;;;-7.15;100.00;99367.09;5077316;28;20048;-72
2022/01/10 02:19:02;;;;;;;20.45;8.40;;;;;;;-6.95;100.00;99398.00;5060180;28;20044;-72
2022/01/10 02:21:28;;;;;;;25.52;9.88;;;;;;;-7.17;100.00;99357.53;5045675;28;20048;-73
2022/01/10 02:23:54;;;;;;;24.02;9.07;;;;;;;-6.99;100.00;99392.88;5060963;28;20040;-74
2022/01/10 02:26:27;;;;;;;21.20;8.35;;;;;;;-6.94;100.00;99406.75;5079013;28;20139;-72
2022/01/10 02:28:54;;;;;;;22.00;8.50;;;;;;;-6.94;100.00;99394.47;5096801;28;20056;-71
2022/01/10 02:31:19;;;;;;;27.13;8.38;;;;;;;-6.93;100.00;99382.19;5077930;28;20039;-72
2022/01/10 02:33:47;;;;;;;23.33;9.45;;;;;;;-6.89;100.00;99399.56;5076915;28;20177;-72
2022/01/10 02:36:28;;;;;;;25.35;10.00;;;;;;;-6.91;100.00;99396.13;5044633;28;20051;-73
2022/01/10 02:39:03;;;;;;;27.38;8.52;;;;;;;-7.10;100.00;99356.44;5079131;28;20085;-72
2022/01/10 02:41:35;;;;;;;25.13;10.13;;;;;;;-7.33;99.80;99323.03;5059912;28;20048;-73
2022/01/10 02:44:09;;;;;;;28.30;9.00;;;;;;;-6.99;100.00;99371.88;5076324;28;20040;-74
2022/01/10 02:46:37;;;;;;;22.48;8.15;;;;;;;-6.96;99.49;99393.66;5076763;28;20052;-72
2022/01/10 02:49:14;;;;;;;20.65;7.60;;;;;;;-6.96;99.51;99382.28;5075744;28;20522;-73
2022/01/10 02:51:42;;;;;;;23.98;8.48;;;;;;;-7.04;100.00;99378.13;5058923;28;20112;-73
2022/01/10 02:54:08;;;;;;;25.95;9.15;;;;;;;-6.98;100.00;99389.34;5058573;28;20401;-73
2022/01/10 02:56:45;;;;;;;21.63;8.63;;;;;;;-7.01;99.57;99389.47;5075312;28;20051;-72
2022/01/10 02:59:11;;;;;;;30.70;7.82;;;;;;;-7.10;99.68;99378.31;5059483;28;20036;-72
2022/01/10 03:01:38;;;;;;;21.88;7.20;;;;;;;-7.00;99.30;99393.81;5060447;28;20076;-72
2022/01/10 03:04:04;;;;;;;22.50;8.38;;;;;;;-6.94;99.72;99401.50;5044434;28;20112;-72
2022/01/10 03:06:30;;;;;;;23.67;7.75;;;;;;;-6.92;98.77;99399.66;5061452;28;20518;-72
2022/01/10 03:08:58;;;;;;;21.30;7.78;;;;;;;-6.99;99.95;99398.13;5062521;28;20048;-72
2022/01/10 03:11:24;;;;;;;19.75;7.60;;;;;;;-6.98;99.42;99394.59;5078698;28;20070;-73
2022/01/10 03:13:50;;;;;;;22.70;8.30;;;;;;;-7.03;99.85;99397.38;5077314;28;20075;-73
2022/01/10 03:16:15;;;;;;;23.40;8.45;;;;;;;-7.09;100.00;99402.84;5043926;28;20040;-72
2022/01/10 03:18:41;;;;;;;24.75;9.25;;;;;;;-7.02;100.00;99404.34;5094881;28;20040;-73
2022/01/10 03:21:07;;;;;;;27.90;9.05;;;;;;;-7.13;100.00;99409.97;5075790;28;20586;-72
2022/01/10 03:23:33;;;;;;;23.08;8.35;;;;;;;-7.07;99.82;99412.38;5075537;28;20139;-72
2022/01/10 03:25:59;;;;;;;18.95;7.30;;;;;;;-7.11;99.90;99409.91;5058812;28;20516;-72
2022/01/10 03:28:25;;;;;;;23.58;7.90;;;;;;;-7.06;99.37;99408.84;5058288;28;20043;-73
2022/01/10 03:30:51;;;;;;;23.20;7.60;;;;;;;-7.07;99.64;99417.63;5058437;28;20059;-71
2022/01/10 03:33:19;;;;;;;22.92;7.50;;;;;;;-7.13;100.00;99407.31;5058355;28;20039;-74
2022/01/10 03:35:44;;;;;;;21.38;8.18;;;;;;;-7.08;99.53;99415.91;5074379;28;20048;-73
2022/01/10 03:38:14;;;;;;;21.77;7.95;;;;;;;-7.16;100.00;99412.66;5041782;28;20040;-72
2022/01/10 03:40:40;;;;;;;22.55;6.80;;;;;;;-7.07;99.47;99417.63;5092550;28;20047;-72
2022/01/10 03:43:11;;;;;;;19.75;7.50;;;;;;;-7.24;99.27;99390.16;5060511;28;20166;-72
2022/01/10 03:45:37;;;;;;;24.58;8.35;;;;;;;-7.04;99.10;99422.78;5044075;28;20059;-72
2022/01/10 03:48:04;;;;;;;21.60;8.50;;;;;;;-7.07;99.28;99417.63;5076361;28;20074;-72
2022/01/10 03:50:30;;;;;;;21.30;8.13;;;;;;;-7.29;99.46;99379.81;5059053;28;20048;-72
2022/01/10 03:52:56;;;;;;;20.17;7.78;;;;;;;-7.16;99.69;99404.78;5076116;28;20127;-73
2022/01/10 03:55:22;;;;;;;21.30;5.95;;;;;;;-7.18;99.78;99403.97;5094162;28;20044;-72
2022/01/10 03:57:48;;;;;;;18.52;6.90;;;;;;;-7.11;99.36;99409.91;5059493;28;20078;-73
2022/01/10 04:00:16;;;;;;;18.20;7.22;;;;;;;-7.25;99.74;99391.06;5043954;28;20151;-72
2022/01/10 04:02:47;;;;;;;23.80;7.82;;;;;;;-7.14;99.41;99409.97;5078859;28;20103;-73
2022/01/10 04:05:14;;;;;;;19.48;6.97;;;;;;;-7.11;99.58;99416.00;5075133;28;20040;-71
2022/01/10 04:07:40;;;;;;;24.60;8.05;;;;;;;-7.11;99.87;99415.16;5059907;28;20040;-71
2022/01/10 04:10:06;;;;;;;21.30;7.03;;;;;;;-7.30;100.00;99385.97;5041870;28;20082;-71
2022/01/10 04:12:32;;;;;;;19.98;6.65;;;;;;;-7.14;99.87;99404.72;5057360;28;20050;-71
2022/01/10 04:14:58;;;;;;;19.10;7.15;;;;;;;-7.36;99.73;99376.50;5055991;28;20052;-71
2022/01/10 04:17:24;;;;;;;21.27;6.10;;;;;;;-7.09;99.74;99418.59;5083168;28;20071;-72
2022/01/10 04:19:50;;;;;;;14.52;5.95;;;;;;;-7.25;99.82;99402.44;5056604;28;20044;-72
2022/01/10 04:22:16;;;;;;;17.98;6.88;;;;;;;-7.01;98.89;99421.84;5056886;28;20048;-70
2022/01/10 04:24:42;;;;;;;22.17;6.78;;;;;;;-7.14;99.64;99415.22;5075732;28;20121;-67
2022/01/10 04:27:10;;;;;;;22.65;6.95;;;;;;;-7.01;99.91;99428.88;5092083;28;20415;-75
2022/01/10 04:29:35;;;;;;;17.52;6.25;;;;;;;-7.08;99.60;99421.16;5058367;28;20420;-74
2022/01/10 04:32:03;;;;;;;20.15;5.95;;;;;;;-7.09;99.92;99416.81;5055999;28;20416;-73
2022/01/10 04:34:29;;;;;;;15.93;5.63;;;;;;;-7.06;99.65;99419.38;5037355;28;20078;-73
2022/01/10 04:36:55;;;;;;;24.75;7.13;;;;;;;-7.04;99.33;99428.03;5073286;28;20128;-74
2022/01/10 04:39:22;;;;;;;19.30;7.35;;;;;;;-7.15;99.71;99419.63;5039362;28;20051;-75
2022/01/10 04:41:48;;;;;;;16.85;6.25;;;;;;;-7.17;99.84;99416.19;5023706;28;20052;-73
2022/01/10 04:44:14;;;;;;;20.83;7.45;;;;;;;-7.05;100.00;99426.34;5039497;28;20098;-74
2022/01/10 04:46:40;;;;;;;16.92;5.60;;;;;;;-7.01;99.95;99431.50;5039993;28;20052;-75
2022/01/10 04:49:13;;;;;;;16.95;6.00;;;;;;;-7.05;100.00;99436.84;5039750;28;20070;-73
2022/01/10 04:51:39;;;;;;;21.77;6.22;;;;;;;-6.94;99.62;99443.53;5057343;28;20076;-75
2022/01/10 04:54:05;;;;;;;17.33;6.05;;;;;;;-6.97;99.81;99443.63;5057029;28;20067;-75
2022/01/10 04:56:32;;;;;;;20.40;6.78;;;;;;;-7.02;99.96;99441.13;5039898;28;20037;-73
2022/01/10 04:58:58;;;;;;;12.55;5.20;;;;;;;-7.00;99.46;99448.97;5038114;28;20482;-75
2022/01/10 05:01:24;;;;;;;14.95;5.47;;;;;;;-7.23;99.35;99403.25;5057185;28;20044;-74
2022/01/10 05:03:53;;;;;;;14.43;5.95;;;;;;;-6.99;99.71;99445.44;5056826;28;20041;-75
2022/01/10 05:06:19;;;;;;;19.38;5.55;;;;;;;-7.00;99.57;99455.06;5073804;28;20093;-73
2022/01/10 05:08:46;;;;;;;17.50;6.07;;;;;;;-7.24;99.19;99427.78;5073307;28;20048;-75
2022/01/10 05:11:17;;;;;;;16.73;5.03;;;;;;;-7.00;99.25;99454.22;5039824;28;20078;-74
2022/01/10 05:13:43;;;;;;;16.13;5.32;;;;;;;-6.99;100.00;99461.19;5056934;28;20123;-75
2022/01/10 05:16:08;;;;;;;14.68;5.40;;;;;;;-7.09;99.42;99450.97;5057501;28;20045;-75
2022/01/10 05:18:36;;;;;;;19.52;5.90;;;;;;;-7.01;99.76;99452.50;5057340;28;20086;-75
2022/01/10 05:21:02;;;;;;;16.15;5.50;;;;;;;-7.14;99.19;99428.38;5057127;28;20056;-74
2022/01/10 05:23:28;;;;;;;14.90;4.50;;;;;;;-7.05;99.42;99457.84;5055543;28;20044;-74
2022/01/10 05:25:54;;;;;;;17.52;5.78;;;;;;;-7.08;99.26;99439.56;5056563;28;20044;-74
2022/01/10 05:28:21;;;;;;;21.67;6.18;;;;;;;-7.01;100.00;99447.25;5023246;28;20036;-73
2022/01/10 05:30:50;;;;;;;17.92;5.47;;;;;;;-6.97;99.32;99467.28;5039502;28;20428;-74
2022/01/10 05:33:18;;;;;;;15.23;5.43;;;;;;;-7.00;99.67;99469.97;5025082;28;20044;-73
2022/01/10 05:35:49;;;;;;;14.10;5.28;;;;;;;-6.93;99.23;99497.78;5057082;28;20040;-75
2022/01/10 05:38:15;;;;;;;17.35;5.20;;;;;;;-6.99;99.59;99492.72;5026236;28;20056;-75
2022/01/10 05:40:42;;;;;;;16.67;5.43;;;;;;;-6.95;99.72;99497.81;5090849;28;20517;-74
2022/01/10 05:43:09;;;;;;;14.93;5.03;;;;;;;-6.98;99.41;99486.53;5039492;28;20037;-74
2022/01/10 05:45:35;;;;;;;16.50;5.00;;;;;;;-7.12;98.85;99477.31;5040087;28;20048;-74
2022/01/10 05:48:11;;;;;;;16.85;6.40;;;;;;;-7.14;99.08;99479.13;5076738;28;20052;-74
2022/01/10 05:50:37;;;;;;;14.88;5.28;;;;;;;-6.99;99.18;99504.06;5057019;28;20081;-74
2022/01/10 05:53:09;;;;;;;16.63;5.63;;;;;;;-7.05;99.41;99489.38;5058543;28;20040;-73
2022/01/10 05:55:36;;;;;;;13.68;4.88;;;;;;;-7.20;99.94;99457.44;5041892;28;20078;-73
2022/01/10 05:58:04;;;;;;;18.13;6.15;;;;;;;-7.15;99.52;99472.16;5042925;28;20051;-74
2022/01/10 06:00:31;;;;;;;15.98;6.15;;;;;;;-7.23;99.37;99458.41;5059306;28;20542;-74
2022/01/10 06:02:56;;;;;;;17.10;6.03;;;;;;;-6.93;99.33;99508.31;5077325;28;20044;-74
2022/01/10 06:05:33;;;;;;;16.85;6.57;;;;;;;-7.03;99.32;99498.06;5043461;28;20454;-75
2022/01/10 06:08:05;;;;;;;15.02;5.15;;;;;;;-6.94;100.00;99509.22;5059770;28;20074;-74
2022/01/10 06:10:32;;;;;;;18.27;5.60;;;;;;;-6.90;99.87;99508.22;5058977;28;20059;-73
2022/01/10 06:13:08;;;;;;;18.05;6.75;;;;;;;-6.92;99.76;99510.00;5074068;28;20044;-74
2022/01/10 06:15:34;;;;;;;16.05;5.78;;;;;;;-6.93;99.63;99511.78;5057140;28;20074;-74
2022/01/10 06:18:00;;;;;;;19.42;6.10;;;;;;;-6.89;99.32;99513.41;5057639;28;20047;-73
2022/01/10 06:20:26;;;;;;;23.75;7.47;;;;;;;-6.90;98.76;99513.47;5091652;28;20139;-73
2022/01/10 06:22:52;;;;;;;17.02;5.85;;;;;;;-6.91;98.73;99516.97;5074847;28;20097;-72
2022/01/10 06:25:21;;;;;;;14.70;4.80;;;;;;;-7.11;98.92;99484.28;5041325;28;20123;-74
2022/01/10 06:27:47;;;;;;;14.95;5.30;;;;;;;-6.97;98.67;99511.94;5042451;28;20064;-74
2022/01/10 06:30:13;;;;;;;12.75;4.60;;;;;;;-6.83;98.56;99533.41;5091730;28;20052;-74
2022/01/10 06:32:43;;;;;;;21.25;6.22;;;;;;;-6.99;98.17;99517.22;5042536;28;20353;-74
2022/01/10 06:35:12;;;;;;;16.52;6.38;;;;;;;-6.82;98.61;99524.59;5041221;28;20129;-74
2022/01/10 06:37:38;;;;;;;21.48;6.53;;;;;;;-6.85;97.96;99514.19;5041281;28;20459;-74
2022/01/10 06:40:06;;;;;;;18.30;5.30;;;;;;;-6.74;98.57;99519.97;5057972;28;20087;-74
2022/01/10 06:42:34;;;;;;;18.08;6.30;;;;;;;-6.80;97.90;99520.16;5057710;28;20055;-73
2022/01/10 06:45:00;;;;;;;16.65;6.50;;;;;;;-6.76;98.50;99515.66;5091671;28;20499;-73
2022/01/10 06:47:27;;;;;;;18.00;6.18;;;;;;;-6.74;98.77;99512.09;5073844;28;20110;-73
2022/01/10 06:49:53;;;;;;;18.25;6.93;;;;;;;-6.75;98.56;99513.00;5041203;28;20045;-74
2022/01/10 06:52:19;;;;;;;19.02;5.88;;;;;;;-6.75;98.10;99514.78;5058763;28;20546;-73
2022/01/10 06:54:48;;;;;;;16.73;5.40;;;;;;;-6.73;97.88;99505.91;5075368;28;20403;-73
2022/01/10 06:57:14;;;;;;;18.15;6.30;;;;;;;-6.70;98.43;99520.75;5075986;28;20045;-75
2022/01/10 06:59:39;;;;;;;17.02;5.60;;;;;;;-6.69;98.06;99514.56;5027322;28;20071;-74
2022/01/10 07:02:06;;;;;;;15.27;5.30;;;;;;;-6.60;97.72;99527.44;5059306;28;20084;-74
2022/01/10 07:04:32;;;;;;;16.25;5.78;;;;;;;-6.56;97.97;99526.44;5092303;28;20074;-74
2022/01/10 07:07:02;;;;;;;16.02;5.65;;;;;;;-6.80;96.84;99488.63;5074779;28;20060;-73
2022/01/10 07:09:31;;;;;;;15.02;5.38;;;;;;;-6.64;97.20;99495.13;5075091;28;20095;-74
2022/01/10 07:12:08;;;;;;;17.33;5.07;;;;;;;-6.73;97.00;99484.88;5057740;28;20472;-74
2022/01/10 07:14:42;;;;;;;18.88;6.15;;;;;;;-6.55;96.97;99523.75;5074855;28;20044;-74
2022/01/10 07:17:10;;;;;;;15.90;5.65;;;;;;;-6.53;96.53;99525.50;5092276;28;20394;-74
2022/01/10 07:19:37;;;;;;;13.45;5.10;;;;;;;-6.80;96.55;99472.84;5041876;28;20097;-73
2022/01/10 07:22:04;;;;;;;14.90;5.28;;;;;;;-6.90;96.44;99471.44;5058126;28;20048;-74
2022/01/10 07:24:32;;;;;;;12.88;4.40;;;;;;;-6.48;96.52;99531.47;5041684;28;20044;-74
2022/01/10 07:26:58;;;;;;;16.80;5.45;;;;;;;-6.59;95.77;99503.72;5091806;28;20055;-74
2022/01/10 07:29:24;;;;;;;13.40;4.10;;;;;;;-6.47;96.20;99517.38;5092363;28;20059;-74
2022/01/10 07:31:50;;;;;;;15.57;5.70;;;;;;;-6.28;95.49;99539.59;5092273;28;20048;-74
2022/01/10 07:34:16;;;;;;;16.42;6.10;;;;;;;-6.37;96.06;99545.13;5092212;28;20442;-72
2022/01/10 07:36:43;;;;;;;17.48;5.78;;;;;;;-6.47;95.06;99501.63;5072534;28;20107;-74
2022/01/10 07:39:10;;;;;;;20.02;5.90;;;;;;;-6.47;95.60;99522.66;5074905;28;20113;-74
2022/01/10 07:41:36;;;;;;;19.00;6.13;;;;;;;-6.56;95.22;99492.25;5089318;28;20051;-75
2022/01/10 07:44:07;;;;;;;20.25;7.00;;;;;;;-6.48;95.58;99502.53;5072079;28;20482;-72
2022/01/10 07:46:33;;;;;;;21.08;5.70;;;;;;;-6.33;95.44;99530.97;5056256;28;20133;-73
2022/01/10 07:48:59;;;;;;;15.27;5.18;;;;;;;-6.42;95.66;99515.50;5055912;28;20047;-73
2022/01/10 07:51:25;;;;;;;17.90;5.93;;;;;;;-6.47;95.33;99502.50;5039092;28;20510;-73
2022/01/10 07:53:51;;;;;;;16.23;6.47;;;;;;;-6.35;94.89;99522.28;5056688;28;20040;-74
2022/01/10 07:56:17;;;;;;;20.45;5.93;;;;;;;-6.16;95.86;99544.44;5058004;28;20044;-75
2022/01/10 07:58:43;;;;;;;17.58;6.07;;;;;;;-6.15;95.13;99550.56;5057261;28;20094;-74
2022/01/10 08:01:08;;;;;;;15.50;6.28;;;;;;;-6.19;95.09;99548.94;5074428;28;20052;-72
2022/01/10 08:03:34;;;;;;;18.42;5.63;;;;;;;-6.21;95.11;99530.59;5075348;28;20052;-74
2022/01/10 08:06:00;;;;;;;18.67;6.45;;;;;;;-6.07;95.59;99543.28;5056622;28;20056;-73
2022/01/10 08:08:26;;;;;;;17.20;5.60;;;;;;;-6.00;95.82;99523.75;5055969;28;20067;-74
2022/01/10 08:10:52;;;;;;;23.27;6.10;;;;;;;-6.07;94.98;99546.78;5057283;28;20496;-71
2022/01/10 08:13:18;;;;;;;19.40;5.55;;;;;;;-6.02;94.78;99540.50;5074571;28;20036;-74
2022/01/10 08:15:44;;;;;;;15.52;6.20;;;;;;;-6.15;95.61;99530.38;5073268;28;20096;-75
2022/01/10 08:18:10;;;;;;;20.70;7.35;;;;;;;-6.09;95.71;99530.19;5055623;28;20068;-73
2022/01/10 08:20:36;;;;;;;15.73;6.00;;;;;;;-6.07;95.20;99533.63;5059854;28;20047;-74
2022/01/10 08:23:02;;;;;;;18.50;6.30;;;;;;;-6.07;95.23;99533.63;5039396;28;20044;-75
2022/01/10 08:25:28;;;;;;;16.60;6.70;;;;;;;-6.01;95.56;99542.22;5055645;28;20108;-75
2022/01/10 08:27:54;;;;;;;19.30;6.72;;;;;;;-6.04;95.83;99521.28;5074330;28;20057;-73
2022/01/10 08:30:20;;;;;;;18.10;6.93;;;;;;;-6.32;94.73;99485.38;5055846;28;20049;-75
2022/01/10 08:32:50;;;;;;;20.88;7.18;;;;;;;-5.93;94.51;99540.19;5038241;28;20492;-73
2022/01/10 08:35:17;;;;;;;20.85;7.65;;;;;;;-5.86;95.67;99520.63;5054555;28;20042;-74
2022/01/10 08:37:44;;;;;;;22.08;7.78;;;;;;;-5.64;94.40;99540.03;5038452;28;20135;-75
2022/01/10 08:40:11;;;;;;;20.55;7.70;;;;;;;-5.75;92.20;99530.78;5037908;28;20127;-75
2022/01/10 08:42:37;;;;;;;19.73;7.82;;;;;;;-5.70;92.41;99527.09;5071874;28;20457;-74
2022/01/10 08:45:04;;;;;;;21.63;7.30;;;;;;;-5.59;92.24;99553.91;5088560;28;20037;-74
2022/01/10 08:47:30;;;;;;;20.70;7.75;;;;;;;-5.84;91.23;99506.50;5072967;28;20083;-73
2022/01/10 08:49:56;;;;;;;21.20;8.15;;;;;;;-5.78;91.75;99523.84;5037922;28;20072;-74
2022/01/10 08:52:21;;;;;;;19.42;7.25;;;;;;;-5.45;90.75;99547.28;5070416;28;20114;-73
2022/01/10 08:54:49;;;;;;;19.88;7.40;;;;;;;-5.49;90.39;99543.91;5072150;28;20139;-74
2022/01/10 08:57:16;;;;;;;20.50;6.80;;;;;;;-5.54;89.80;99522.16;5087132;28;20480;-74
2022/01/10 08:59:42;;;;;;;22.20;8.40;;;;;;;-5.45;90.47;99549.94;5038048;28;20044;-74
2022/01/10 09:02:08;;;;;;;23.23;8.43;;;;;;;-5.55;90.60;99536.25;5070164;28;20040;-73
2022/01/10 09:04:34;;;;;;;17.00;7.00;;;;;;;-5.58;89.94;99513.50;5072729;28;20134;-74
2022/01/10 09:07:02;;;;;;;21.63;7.80;;;;;;;-5.44;89.30;99538.50;5087452;28;20051;-75
2022/01/10 09:09:29;;;;;;;17.58;7.03;;;;;;;-5.52;89.70;99530.00;5054669;28;20052;-73
2022/01/10 09:11:55;;;;;;;21.17;6.90;;;;;;;-5.67;89.94;99516.44;5089154;28;20125;-74
2022/01/10 09:14:21;;;;;;;21.92;7.10;;;;;;;-5.58;89.28;99537.19;5023287;28;20044;-75
2022/01/10 09:16:47;;;;;;;21.92;8.18;;;;;;;-5.35;89.56;99535.53;5038532;28;20041;-74
2022/01/10 09:19:13;;;;;;;22.80;8.27;;;;;;;-5.44;89.83;99522.69;5088312;28;20040;-74
2022/01/10 09:21:39;;;;;;;20.90;8.27;;;;;;;-5.50;89.55;99501.84;5025066;28;20104;-74
2022/01/10 09:24:05;;;;;;;21.33;7.68;;;;;;;-5.31;89.89;99550.31;5026269;28;20490;-74
2022/01/10 09:26:31;;;;;;;15.20;5.28;;;;;;;-5.52;89.47;99520.34;5059275;28;20106;-74
2022/01/10 09:28:57;;;;;;;20.60;6.82;;;;;;;-5.41;90.12;99517.28;5059776;28;20447;-74
2022/01/10 09:31:23;;;;;;;14.38;4.93;;;;;;;-5.42;89.26;99542.78;5076544;28;20044;-73
2022/01/10 09:33:54;;;;;;;17.40;5.95;;;;;;;-5.33;90.14;99536.34;5057316;28;20503;-73
2022/01/10 09:36:24;;;;;;;13.98;4.88;;;;;;;-5.39;89.70;99532.13;5093019;28;20055;-74
2022/01/10 09:38:51;;;;;;;15.85;4.10;;;;;;;-5.48;90.20;99536.91;5059620;28;20524;-76
2022/01/10 09:41:17;;;;;;;20.27;4.90;;;;;;;-5.38;89.84;99548.81;5076509;28;20096;-74
2022/01/10 09:43:49;;;;;;;13.23;4.00;;;;;;;-5.22;88.99;99543.88;5058674;28;20560;-74
2022/01/10 09:46:15;;;;;;;13.18;4.18;;;;;;;-5.43;89.75;99525.25;5075940;28;20103;-73
2022/01/10 09:48:41;;;;;;;14.23;4.22;;;;;;;-5.05;88.77;99562.53;5077810;28;20040;-74
2022/01/10 09:51:07;;;;;;;14.35;4.32;;;;;;;-5.23;88.49;99511.41;5058241;28;20334;-73
2022/01/10 09:53:32;;;;;;;15.27;4.43;;;;;;;-4.99;88.95;99551.78;5042655;28;20040;-74
2022/01/10 09:55:58;;;;;;;10.13;3.38;;;;;;;-5.53;87.32;99480.88;5040817;28;20143;-75
2022/01/10 09:58:24;;;;;;;12.35;3.63;;;;;;;-5.10;86.54;99533.72;5041357;28;20044;-73
2022/01/10 10:00:55;;;;;;;14.00;4.22;;;;;;;-5.26;87.32;99532.56;5040760;28;20048;-74
2022/01/10 10:03:22;;;;;;;;;;;;;;;-5.03;87.73;99533.50;5058125;28;20047;-75
2022/01/10 10:05:54;;;;;;;8.88;2.80;;;;;;;-5.25;87.41;99502.69;5073304;28;19974;-73
2022/01/10 10:08:21;;;;;;;9.63;3.20;;;;;;;-5.21;86.21;99533.25;5057557;28;20489;-74
2022/01/10 10:10:48;;;;;;;8.60;2.58;;;;;;;-4.97;86.38;99549.06;5090911;28;20041;-74
2022/01/10 10:13:15;;;;;;;14.02;3.53;;;;;;;-4.86;86.04;99546.94;5075011;28;20135;-73
2022/01/10 10:15:41;;;;;;;11.25;3.72;;;;;;;-4.66;86.04;99548.81;5039695;28;20075;-74
2022/01/10 10:18:09;;;;;;;15.35;4.47;;;;;;;-4.83;85.89;99554.69;5075061;28;20055;-73
2022/01/10 10:20:35;;;;;;;12.88;3.80;;;;;;;-4.86;85.68;99557.47;5041535;28;20052;-75
2022/01/10 10:23:03;;;;;;;9.38;2.75;;;;;;;-4.83;84.49;99552.06;5040930;28;20400;-74
2022/01/10 10:25:29;;;;;;;10.95;3.28;;;;;;;-4.72;84.08;99549.88;5076288;28;20102;-74
2022/01/10 10:27:56;;;;;;;14.27;4.05;;;;;;;-4.45;83.77;99539.22;5058341;28;20453;-74
2022/01/10 10:30:28;;;;;;;10.20;3.63;;;;;;;-4.35;82.62;99543.22;5076946;28;20069;-73
2022/01/10 10:33:15;;;;;;;12.32;3.65;;;;;;;-4.38;81.74;99535.41;5075006;28;20456;-74
2022/01/10 10:35:43;;;;;;;12.45;3.60;;;;;;;-4.33;82.12;99543.13;5075441;28;20097;-74
2022/01/10 10:38:08;;;;;;;12.45;5.00;;;;;;;-4.48;82.16;99536.69;5041463;28;20603;-74
2022/01/10 10:40:44;;;;;;;12.13;4.05;;;;;;;-4.61;82.87;99521.34;5075108;28;20067;-73
2022/01/10 10:43:10;;;;;;;14.07;3.85;;;;;;;-4.43;82.70;99545.25;5092996;28;20083;-74
2022/01/10 10:45:38;;;;;;;14.95;4.50;;;;;;;-4.97;83.12;99520.97;5064959;28;20044;-73
2022/01/10 10:48:06;;;;;;;16.45;4.95;;;;;;;-4.75;84.28;99551.78;5041818;28;20430;-74
2022/01/10 10:50:41;;;;;;;11.18;3.65;;;;;;;-5.18;85.08;99519.13;5090230;28;20463;-73
2022/01/10 10:53:09;;;;;;;12.70;4.03;;;;;;;-5.12;85.43;99534.69;5040660;28;20175;-74
2022/01/10 10:55:39;;;;;;;11.18;3.97;;;;;;;-5.07;85.72;99548.56;5057634;28;20044;-73
2022/01/10 10:58:06;;;;;;;12.18;3.83;;;;;;;-5.17;85.77;99563.84;5058777;28;20040;-73
2022/01/10 11:00:32;;;;;;;13.57;3.75;;;;;;;-5.33;86.17;99560.06;5090888;28;20052;-74
2022/01/10 11:02:58;;;;;;;17.77;4.28;;;;;;;-5.31;87.14;99555.56;5041075;28;20357;-73
2022/01/10 11:05:24;;;;;;;15.13;4.50;;;;;;;-5.41;87.21;99564.72;5040246;28;20385;-75
2022/01/10 11:07:50;;;;;;;17.10;4.82;;;;;;;-5.61;88.30;99521.50;5040690;28;20041;-75
2022/01/10 11:10:16;;;;;;;10.43;3.90;;;;;;;-5.48;87.67;99547.44;5076434;28;20378;-73
2022/01/10 11:12:49;;;;;;;13.60;3.38;;;;;;;-5.45;88.11;99547.28;5092444;28;20041;-74
2022/01/10 11:15:15;;;;;;;12.13;4.15;;;;;;;-5.85;88.81;99506.53;5075383;28;20511;-74
2022/01/10 11:17:41;;;;;;;12.70;3.40;;;;;;;-5.47;88.95;99555.25;5090624;28;20047;-74
2022/01/10 11:20:08;;;;;;;11.25;3.35;;;;;;;-5.43;87.68;99553.38;5057125;28;20071;-73
2022/01/10 11:22:37;;;;;;;13.27;3.40;;;;;;;-5.65;88.38;99519.91;5076063;28;20064;-73
2022/01/10 11:25:04;;;;;;;11.48;3.65;;;;;;;-5.68;88.53;99520.00;5059685;28;20481;-74
2022/01/10 11:27:32;;;;;;;13.68;4.25;;;;;;;-5.81;89.05;99502.91;5078072;28;20063;-73
2022/01/10 11:29:59;;;;;;;13.63;3.75;;;;;;;-5.60;89.04;99543.41;5061746;28;20411;-74
2022/01/10 11:33:04;;;;;;;10.65;2.88;;;;;;;-5.71;89.98;99543.78;5046356;28;20056;-74